createdAt,value
2023-02-24T00:00:30.548Z,8.39
2023-02-24T00:02:57.044Z,8.45
2023-02-24T00:05:23.748Z,8.38
2023-02-24T00:07:50.216Z,8.44
2023-02-24T00:10:21.395Z,8.26
2023-02-24T00:12:47.927Z,8.35
2023-02-24T00:15:15.242Z,8.36
2023-02-24T00:17:45.368Z,8.41
2023-02-24T00:20:13.515Z,8.37
2023-02-24T00:22:40.492Z,8.32
2023-02-24T00:25:07.898Z,8.23
2023-02-24T00:27:35.150Z,8.22
2023-02-24T00:30:05.564Z,8.31
2023-02-24T00:32:33.115Z,8.36
2023-02-24T00:34:59.654Z,8.37
2023-02-24T00:37:26.125Z,8.35
2023-02-24T00:39:58.503Z,8.26
2023-02-24T00:42:25.471Z,8.33
2023-02-24T00:44:54.094Z,8.30
2023-02-24T00:47:22.495Z,8.29
2023-02-24T00:49:56.615Z,8.36
2023-02-24T00:52:27.815Z,8.27
2023-02-24T00:54:54.240Z,8.20
2023-02-24T00:57:21.755Z,8.28
2023-02-24T00:59:48.548Z,8.31
2023-02-24T01:02:15.848Z,8.34
2023-02-24T01:04:44.396Z,8.31
2023-02-24T01:07:11.792Z,8.30
2023-02-24T01:09:41.458Z,8.20
2023-02-24T01:12:28.476Z,8.30
2023-02-24T01:14:55.330Z,8.27
2023-02-24T01:17:23.091Z,8.13
2023-02-24T01:19:50.245Z,8.27
2023-02-24T01:22:19.774Z,8.24
2023-02-24T01:24:47.123Z,8.11
2023-02-24T01:27:14.914Z,8.23
2023-02-24T01:29:50.445Z,8.18
2023-02-24T01:32:20.655Z,8.02
2023-02-24T01:34:50.874Z,8.12
2023-02-24T01:37:19.223Z,8.08
2023-02-24T01:39:46.239Z,8.12
2023-02-24T01:42:16.918Z,8.13
2023-02-24T01:44:43.865Z,8.12
2023-02-24T01:47:11.857Z,8.07
2023-02-24T01:49:42.384Z,8.18
2023-02-24T01:52:13.586Z,8.24
2023-02-24T01:54:46.492Z,8.16
2023-02-24T01:57:19.737Z,8.25
2023-02-24T01:59:49.131Z,8.14
2023-02-24T02:02:16.636Z,8.17
2023-02-24T02:05:05.715Z,8.10
2023-02-24T02:07:32.970Z,8.12
2023-02-24T02:10:03.958Z,7.92
2023-02-24T02:12:37.175Z,7.97
2023-02-24T02:15:06.139Z,8.17
2023-02-24T02:17:58.036Z,8.16
2023-02-24T02:20:55.787Z,8.11
2023-02-24T02:23:45.811Z,8.10
2023-02-24T02:26:47.308Z,8.17
2023-02-24T02:29:30.763Z,8.00
2023-02-24T02:32:25.403Z,7.98
2023-02-24T02:35:11.352Z,8.08
2023-02-24T02:37:50.946Z,8.13
2023-02-24T02:40:47.418Z,8.18
2023-02-24T02:43:25.979Z,8.20
2023-02-24T02:45:59.321Z,8.16
2023-02-24T02:48:38.018Z,8.16
2023-02-24T02:51:11.228Z,8.23
2023-02-24T02:53:56.183Z,8.28
2023-02-24T02:56:32.025Z,8.34
2023-02-24T02:59:00.900Z,8.34
2023-02-24T03:01:34.162Z,8.34
2023-02-24T03:04:05.775Z,8.39
2023-02-24T03:06:40.096Z,8.37
2023-02-24T03:09:17.931Z,8.39
2023-02-24T03:11:53.761Z,8.40
2023-02-24T03:14:26.134Z,8.46
2023-02-24T03:16:55.854Z,8.33
2023-02-24T03:19:31.116Z,8.45
2023-02-24T03:22:15.489Z,8.34
2023-02-24T03:24:44.271Z,8.38
2023-02-24T03:27:19.997Z,8.27
2023-02-24T03:30:01.960Z,8.26
2023-02-24T03:32:55.852Z,8.25
2023-02-24T03:35:36.867Z,8.29
2023-02-24T03:38:06.347Z,8.30
2023-02-24T03:40:34.519Z,8.36
2023-02-24T03:43:07.549Z,8.38
2023-02-24T03:45:41.733Z,8.32
2023-02-24T03:48:10.028Z,8.39
2023-02-24T03:50:38.776Z,8.36
2023-02-24T03:53:24.059Z,8.29
2023-02-24T03:56:04.124Z,8.30
2023-02-24T03:58:55.208Z,8.22
2023-02-24T04:01:57.965Z,8.24
2023-02-24T04:04:34.780Z,8.24
2023-02-24T04:07:05.203Z,8.10
2023-02-24T04:09:53.881Z,8.22
2023-02-24T04:12:42.733Z,8.10
2023-02-24T04:15:19.007Z,8.17
2023-02-24T04:17:50.432Z,8.27
2023-02-24T04:20:24.952Z,8.32
2023-02-24T04:22:57.018Z,8.33
2023-02-24T04:25:25.639Z,8.30
2023-02-24T04:27:59.043Z,8.26
2023-02-24T04:30:30.088Z,8.24
2023-02-24T04:32:56.878Z,8.27
2023-02-24T04:35:26.753Z,8.28
2023-02-24T04:37:55.100Z,8.25
2023-02-24T04:40:25.264Z,8.26
2023-02-24T04:42:53.600Z,8.20
2023-02-24T04:45:25.738Z,8.21
2023-02-24T04:48:01.046Z,8.20
2023-02-24T04:50:33.767Z,8.21
2023-02-24T04:53:12.677Z,8.20
2023-02-24T04:55:49.904Z,8.06
2023-02-24T04:58:21.227Z,8.09
2023-02-24T05:00:52.609Z,8.04
2023-02-24T05:03:21.584Z,8.07
2023-02-24T05:05:56.971Z,8.13
2023-02-24T05:08:24.574Z,8.13
2023-02-24T05:10:51.903Z,8.11
2023-02-24T05:13:27.992Z,8.12
2023-02-24T05:15:56.649Z,8.12
2023-02-24T05:18:26.332Z,8.06
2023-02-24T05:21:24.429Z,7.98
2023-02-24T05:23:53.165Z,7.99
2023-02-24T05:26:21.267Z,8.04
2023-02-24T05:28:52.205Z,8.00
2023-02-24T05:31:23.857Z,7.97
2023-02-24T05:33:54.666Z,7.98
2023-02-24T05:36:22.629Z,7.87
2023-02-24T05:38:56.579Z,7.89
2023-02-24T05:41:38.812Z,7.82
2023-02-24T05:44:14.206Z,7.71
2023-02-24T05:46:45.177Z,7.66
2023-02-24T05:49:23.950Z,7.72
2023-02-24T05:51:55.486Z,7.58
2023-02-24T05:54:31.008Z,7.62
2023-02-24T05:57:06.914Z,7.56
2023-02-24T05:59:35.544Z,7.55
2023-02-24T06:02:09.787Z,7.50
2023-02-24T06:04:41.088Z,7.46
2023-02-24T06:07:19.098Z,7.43
2023-02-24T06:09:49.933Z,7.48
2023-02-24T06:12:18.197Z,7.52
2023-02-24T06:14:45.146Z,7.45
2023-02-24T06:17:11.716Z,7.39
2023-02-24T06:19:39.304Z,7.47
2023-02-24T06:22:10.820Z,7.55
2023-02-24T06:24:37.735Z,7.56
2023-02-24T06:27:17.196Z,7.54
2023-02-24T06:29:50.148Z,7.50
2023-02-24T06:32:26.132Z,7.49
2023-02-24T06:34:54.385Z,7.63
2023-02-24T06:37:23.045Z,7.65
2023-02-24T06:39:49.958Z,7.67
2023-02-24T06:42:16.588Z,7.74
2023-02-24T06:44:43.113Z,7.65
2023-02-24T06:47:13.217Z,7.52
2023-02-24T06:49:45.496Z,7.64
2023-02-24T06:52:18.531Z,7.50
2023-02-24T06:54:47.887Z,7.56
2023-02-24T06:57:16.822Z,7.76
2023-02-24T06:59:43.385Z,7.77
2023-02-24T07:02:10.934Z,7.74
2023-02-24T07:04:43.801Z,7.84
2023-02-24T07:07:10.956Z,7.88
2023-02-24T07:09:41.708Z,7.98
2023-02-24T07:12:08.250Z,8.06
2023-02-24T07:14:36.978Z,7.76
2023-02-24T07:17:05.874Z,7.79
2023-02-24T07:19:32.767Z,7.85
2023-02-24T07:22:04.387Z,7.73
2023-02-24T07:24:33.770Z,7.84
2023-02-24T07:27:05.051Z,7.85
2023-02-24T07:29:33.155Z,7.86
2023-02-24T07:32:06.064Z,8.02
2023-02-24T07:34:33.793Z,8.08
2023-02-24T07:37:06.820Z,7.95
2023-02-24T07:39:34.703Z,8.06
2023-02-24T07:42:01.171Z,8.14
2023-02-24T07:44:29.407Z,8.11
2023-02-24T07:46:59.118Z,7.92
2023-02-24T07:49:27.954Z,8.06
2023-02-24T07:51:57.732Z,7.92
2023-02-24T07:54:27.253Z,7.83
2023-02-24T07:56:57.063Z,8.10
2023-02-24T07:59:33.903Z,8.01
2023-02-24T08:02:05.001Z,8.01
2023-02-24T08:04:39.738Z,8.25
2023-02-24T08:07:13.018Z,8.13
2023-02-24T08:09:46.489Z,8.24
2023-02-24T08:12:21.609Z,8.38
2023-02-24T08:14:51.322Z,8.33
2023-02-24T08:17:24.131Z,8.13
2023-02-24T08:20:11.832Z,8.20
2023-02-24T08:22:38.985Z,7.99
2023-02-24T08:25:06.219Z,8.13
2023-02-24T08:27:39.010Z,7.86
2023-02-24T08:30:09.808Z,7.94
2023-02-24T08:32:38.647Z,8.02
2023-02-24T08:35:16.971Z,8.29
2023-02-24T08:37:49.870Z,8.07
2023-02-24T08:40:31.449Z,7.92
2023-02-24T08:43:16.071Z,7.98
2023-02-24T08:45:51.751Z,7.86
2023-02-24T08:48:26.482Z,8.05
2023-02-24T08:50:57.208Z,7.87
2023-02-24T08:53:31.432Z,8.21
2023-02-24T08:56:00.264Z,8.17
2023-02-24T08:58:27.217Z,8.46
2023-02-24T09:00:59.390Z,8.30
2023-02-24T09:03:28.110Z,8.29
2023-02-24T09:06:08.826Z,8.25
2023-02-24T09:08:39.238Z,8.26
2023-02-24T09:11:09.535Z,8.36
2023-02-24T09:13:52.383Z,8.38
2023-02-24T09:16:20.523Z,8.46
2023-02-24T09:19:07.358Z,8.20
2023-02-24T09:21:59.809Z,8.27
2023-02-24T09:24:27.325Z,8.17
2023-02-24T09:26:58.541Z,8.28
2023-02-24T09:29:49.216Z,8.31
2023-02-24T09:32:16.235Z,8.22
2023-02-24T09:34:46.201Z,8.28
2023-02-24T09:37:27.168Z,8.33
2023-02-24T09:39:54.621Z,8.32
2023-02-24T09:42:25.697Z,8.29
2023-02-24T09:45:02.690Z,8.64
2023-02-24T09:47:39.737Z,8.44
2023-02-24T09:50:51.241Z,8.59
2023-02-24T09:53:19.723Z,8.43
2023-02-24T09:56:04.471Z,8.40
2023-02-24T09:58:58.605Z,8.59
2023-02-24T10:01:42.703Z,8.78
2023-02-24T10:04:20.810Z,8.62
2023-02-24T10:06:51.373Z,8.73
2023-02-24T10:09:26.707Z,8.83
2023-02-24T10:12:04.186Z,8.76
2023-02-24T10:15:18.949Z,9.01
2023-02-24T10:17:58.061Z,9.00
2023-02-24T10:20:39.398Z,9.02
2023-02-24T10:23:29.675Z,9.03
2023-02-24T10:26:06.684Z,8.81
2023-02-24T10:28:51.931Z,9.14
2023-02-24T10:31:35.621Z,9.08
2023-02-24T10:34:09.373Z,9.20
2023-02-24T10:36:37.712Z,9.45
2023-02-24T10:39:17.043Z,9.59
2023-02-24T10:41:57.398Z,9.67
2023-02-24T10:44:36.215Z,9.75
2023-02-24T10:47:13.522Z,9.63
2023-02-24T10:49:58.179Z,9.69
2023-02-24T10:52:50.348Z,9.59
2023-02-24T10:55:53.347Z,9.89
2023-02-24T10:58:56.324Z,10.40
2023-02-24T11:01:49.764Z,10.20
2023-02-24T11:04:43.641Z,9.91
2023-02-24T11:07:24.828Z,10.00
2023-02-24T11:10:13.852Z,9.85
2023-02-24T11:13:09.700Z,10.09
2023-02-24T11:16:02.236Z,9.96
2023-02-24T11:18:31.006Z,10.36
2023-02-24T11:21:04.241Z,10.15
2023-02-24T11:23:35.073Z,10.92
2023-02-24T11:26:21.110Z,10.93
2023-02-24T11:29:23.146Z,11.41
2023-02-24T11:31:52.097Z,11.76
2023-02-24T11:34:28.941Z,11.32
2023-02-24T11:37:45.835Z,11.69
2023-02-24T11:40:18.708Z,11.47
2023-02-24T11:42:54.981Z,11.25
2023-02-24T11:45:38.167Z,11.12
2023-02-24T11:48:21.587Z,10.85
2023-02-24T11:51:03.571Z,10.98
2023-02-24T11:53:48.054Z,10.46
2023-02-24T11:56:23.765Z,10.39
2023-02-24T11:59:12.762Z,10.15
2023-02-24T12:02:18.928Z,10.18
2023-02-24T12:04:57.004Z,10.28
2023-02-24T12:07:34.945Z,10.41
2023-02-24T12:10:16.712Z,10.66
2023-02-24T12:13:08.970Z,10.44
2023-02-24T12:15:43.065Z,10.45
2023-02-24T12:18:51.189Z,10.32
2023-02-24T12:21:30.624Z,10.74
2023-02-24T12:23:58.772Z,10.63
2023-02-24T12:27:11.238Z,10.58
2023-02-24T12:30:22.862Z,10.64
2023-02-24T12:32:59.993Z,10.37
2023-02-24T12:35:41.610Z,10.22
2023-02-24T12:38:31.565Z,10.33
2023-02-24T12:41:03.671Z,10.41
2023-02-24T12:43:54.102Z,10.53
2023-02-24T12:46:34.056Z,10.43
2023-02-24T12:49:00.552Z,10.46
2023-02-24T12:51:58.253Z,10.43
2023-02-24T12:55:14.696Z,10.64
2023-02-24T12:57:56.056Z,10.37
2023-02-24T13:00:38.562Z,10.40
2023-02-24T13:03:26.601Z,10.44
2023-02-24T13:06:07.180Z,10.54
2023-02-24T13:08:51.869Z,10.63
2023-02-24T13:11:40.337Z,10.53
2023-02-24T13:14:21.190Z,10.47
2023-02-24T13:16:51.102Z,10.74
2023-02-24T13:19:27.589Z,10.60
2023-02-24T13:22:12.968Z,10.74
2023-02-24T13:24:42.382Z,10.90
2023-02-24T13:27:21.208Z,10.35
2023-02-24T13:29:51.003Z,10.64
2023-02-24T13:32:35.189Z,10.68
2023-02-24T13:35:16.738Z,10.48
2023-02-24T13:37:46.864Z,10.19
2023-02-24T13:40:19.061Z,10.50
2023-02-24T13:42:58.180Z,10.27
2023-02-24T13:45:26.505Z,10.24
2023-02-24T13:48:12.226Z,10.30
2023-02-24T13:51:17.414Z,10.23
2023-02-24T13:54:12.098Z,10.19
2023-02-24T13:57:04.492Z,10.08
2023-02-24T13:59:57.635Z,10.08
2023-02-24T14:02:29.920Z,10.24
2023-02-24T14:05:00.144Z,10.30
2023-02-24T14:07:33.779Z,10.45
2023-02-24T14:10:14.541Z,10.32
2023-02-24T14:12:44.677Z,10.48
2023-02-24T14:15:20.605Z,10.35
2023-02-24T14:17:59.781Z,10.06
2023-02-24T14:20:28.377Z,10.01
2023-02-24T14:22:58.823Z,10.09
2023-02-24T14:25:29.944Z,10.12
2023-02-24T14:27:57.338Z,10.23
2023-02-24T14:30:41.234Z,10.27
2023-02-24T14:33:25.868Z,10.27
2023-02-24T14:35:52.385Z,10.40
2023-02-24T14:38:40.064Z,10.40
2023-02-24T14:41:27.762Z,10.50
2023-02-24T14:43:56.481Z,10.60
2023-02-24T14:46:23.777Z,10.32
2023-02-24T14:48:56.143Z,10.35
2023-02-24T14:51:28.537Z,10.30
2023-02-24T14:54:07.071Z,10.28
2023-02-24T14:56:35.622Z,10.22
2023-02-24T14:59:17.120Z,10.40
2023-02-24T15:01:48.216Z,10.23
2023-02-24T15:04:34.180Z,10.28
2023-02-24T15:07:05.265Z,10.15
2023-02-24T15:09:40.797Z,10.00
2023-02-24T15:12:27.242Z,10.02
2023-02-24T15:14:59.448Z,9.96
2023-02-24T15:17:26.064Z,9.98
2023-02-24T15:19:55.540Z,9.95
2023-02-24T15:22:26.572Z,9.93
2023-02-24T15:24:56.059Z,9.91
2023-02-24T15:27:26.011Z,10.10
2023-02-24T15:30:02.144Z,9.92
2023-02-24T15:32:31.987Z,9.96
2023-02-24T15:34:58.696Z,9.89
2023-02-24T15:37:28.894Z,9.94
2023-02-24T15:40:23.840Z,9.81
2023-02-24T15:43:08.549Z,9.68
2023-02-24T15:45:39.359Z,9.71
2023-02-24T15:48:25.071Z,9.49
2023-02-24T15:50:51.628Z,9.61
2023-02-24T15:53:18.325Z,9.49
2023-02-24T15:55:45.940Z,9.34
2023-02-24T15:58:17.802Z,9.31
2023-02-24T16:00:45.432Z,9.12
2023-02-24T16:03:12.988Z,9.08
2023-02-24T16:05:39.651Z,9.12
2023-02-24T16:08:12.930Z,9.26
2023-02-24T16:10:40.907Z,9.29
2023-02-24T16:13:18.260Z,9.15
2023-02-24T16:15:45.458Z,9.03
2023-02-24T16:18:22.390Z,9.11
2023-02-24T16:20:55.273Z,9.09
2023-02-24T16:23:24.546Z,9.14
2023-02-24T16:25:58.842Z,8.94
2023-02-24T16:28:26.686Z,9.08
2023-02-24T16:30:53.641Z,8.82
2023-02-24T16:33:23.410Z,8.81
2023-02-24T16:35:57.952Z,8.67
2023-02-24T16:38:26.742Z,8.65
2023-02-24T16:40:54.434Z,8.89
2023-02-24T16:43:20.981Z,8.76
2023-02-24T16:45:47.666Z,8.64
2023-02-24T16:48:23.986Z,8.63
2023-02-24T16:50:52.069Z,8.69
2023-02-24T16:53:22.930Z,8.83
2023-02-24T16:55:50.456Z,8.36
2023-02-24T16:58:17.564Z,8.57
2023-02-24T17:00:46.719Z,8.57
2023-02-24T17:03:18.061Z,8.50
2023-02-24T17:05:44.726Z,8.47
2023-02-24T17:08:11.546Z,8.58
2023-02-24T17:10:39.955Z,8.63
2023-02-24T17:13:07.160Z,8.66
2023-02-24T17:15:33.714Z,8.63
2023-02-24T17:18:01.338Z,8.66
2023-02-24T17:20:27.956Z,8.61
2023-02-24T17:22:54.549Z,8.63
2023-02-24T17:25:26.819Z,8.67
2023-02-24T17:27:54.652Z,8.47
2023-02-24T17:30:25.920Z,8.69
2023-02-24T17:32:52.492Z,8.60
2023-02-24T17:35:19.341Z,8.65
2023-02-24T17:37:45.857Z,8.41
2023-02-24T17:40:13.685Z,8.44
2023-02-24T17:42:40.845Z,8.45
2023-02-24T17:45:09.216Z,8.25
2023-02-24T17:47:35.865Z,8.45
2023-02-24T17:50:03.272Z,8.31
2023-02-24T17:52:31.764Z,8.24
2023-02-24T17:54:58.878Z,8.14
2023-02-24T17:57:27.174Z,8.24
2023-02-24T17:59:54.941Z,8.23
2023-02-24T18:02:22.046Z,8.32
2023-02-24T18:04:51.722Z,8.30
2023-02-24T18:07:19.191Z,8.05
2023-02-24T18:09:45.773Z,8.12
2023-02-24T18:12:12.511Z,8.01
2023-02-24T18:14:38.977Z,8.06
2023-02-24T18:17:05.531Z,8.04
2023-02-24T18:19:34.049Z,8.06
2023-02-24T18:22:00.564Z,8.02
2023-02-24T18:24:27.126Z,7.96
2023-02-24T18:26:53.950Z,7.97
2023-02-24T18:29:20.506Z,8.07
2023-02-24T18:31:48.138Z,7.86
2023-02-24T18:34:14.694Z,7.73
2023-02-24T18:36:42.463Z,7.83
2023-02-24T18:39:09.882Z,7.90
2023-02-24T18:41:36.820Z,7.83
2023-02-24T18:44:09.366Z,7.67
2023-02-24T18:46:45.176Z,7.67
2023-02-24T18:49:11.809Z,7.49
2023-02-24T18:51:38.778Z,7.68
2023-02-24T18:54:05.236Z,7.64
2023-02-24T18:56:34.132Z,7.66
2023-02-24T18:59:01.709Z,7.65
2023-02-24T19:01:31.541Z,7.58
2023-02-24T19:03:58.824Z,7.62
2023-02-24T19:06:27.497Z,7.63
2023-02-24T19:09:01.995Z,7.55
2023-02-24T19:11:29.704Z,7.48
2023-02-24T19:14:00.690Z,7.49
2023-02-24T19:16:31.903Z,7.47
2023-02-24T19:18:59.772Z,7.48
2023-02-24T19:21:30.233Z,7.26
2023-02-24T19:24:08.406Z,7.28
2023-02-24T19:26:35.212Z,7.20
2023-02-24T19:29:02.295Z,7.28
2023-02-24T19:31:30.329Z,7.24
2023-02-24T19:34:00.469Z,7.27
2023-02-24T19:36:28.087Z,7.29
2023-02-24T19:38:54.641Z,7.15
2023-02-24T19:41:21.323Z,7.22
2023-02-24T19:43:49.901Z,7.28
2023-02-24T19:46:20.745Z,7.19
2023-02-24T19:48:48.596Z,7.11
2023-02-24T19:51:17.719Z,7.04
2023-02-24T19:53:44.854Z,6.74
2023-02-24T19:56:11.791Z,6.68
2023-02-24T19:58:38.609Z,6.37
2023-02-24T20:01:13.585Z,6.37
2023-02-24T20:03:43.456Z,6.12
2023-02-24T20:06:22.188Z,5.83
2023-02-24T20:08:48.949Z,5.87
2023-02-24T20:11:15.745Z,5.85
2023-02-24T20:13:43.323Z,5.72
2023-02-24T20:16:12.369Z,5.70
2023-02-24T20:18:40.674Z,5.35
2023-02-24T20:21:10.992Z,5.20
2023-02-24T20:23:38.988Z,5.03
2023-02-24T20:26:06.630Z,5.12
2023-02-24T20:28:33.203Z,5.05
2023-02-24T20:31:07.259Z,5.09
2023-02-24T20:33:34.070Z,5.15
2023-02-24T20:36:01.228Z,5.04
2023-02-24T20:38:29.133Z,5.10
2023-02-24T20:41:00.432Z,4.83
2023-02-24T20:43:28.241Z,4.79
2023-02-24T20:45:54.943Z,4.67
2023-02-24T20:48:22.833Z,4.76
2023-02-24T20:50:49.561Z,4.72
2023-02-24T20:53:16.501Z,4.58
2023-02-24T20:55:43.166Z,4.69
2023-02-24T20:58:09.716Z,4.70
2023-02-24T21:00:38.574Z,4.73
2023-02-24T21:03:08.140Z,4.61
2023-02-24T21:05:35.717Z,4.67
2023-02-24T21:08:02.253Z,4.70
2023-02-24T21:10:29.770Z,4.74
2023-02-24T21:12:56.615Z,4.84
2023-02-24T21:15:23.135Z,4.77
2023-02-24T21:17:49.679Z,4.56
2023-02-24T21:20:16.169Z,4.58
2023-02-24T21:22:42.637Z,4.49
2023-02-24T21:25:12.772Z,4.47
2023-02-24T21:27:39.764Z,4.22
2023-02-24T21:30:07.699Z,4.50
2023-02-24T21:32:34.504Z,4.25
2023-02-24T21:35:02.183Z,4.26
2023-02-24T21:37:29.379Z,4.14
2023-02-24T21:39:55.997Z,4.13
2023-02-24T21:42:22.718Z,4.01
2023-02-24T21:44:53.176Z,4.14
2023-02-24T21:47:20.443Z,4.12
2023-02-24T21:49:46.902Z,4.18
2023-02-24T21:52:13.413Z,4.09
2023-02-24T21:54:40.329Z,3.93
2023-02-24T21:57:07.342Z,4.03
2023-02-24T21:59:34.300Z,4.05
2023-02-24T22:02:00.909Z,3.98
2023-02-24T22:04:28.147Z,4.11
2023-02-24T22:06:54.642Z,3.97
2023-02-24T22:09:21.301Z,3.72
2023-02-24T22:11:49.265Z,3.72
2023-02-24T22:14:16.026Z,3.85
2023-02-24T22:16:44.333Z,3.65
2023-02-24T22:19:11.784Z,3.89
2023-02-24T22:21:39.619Z,3.88
2023-02-24T22:24:06.586Z,3.69
2023-02-24T22:26:33.171Z,3.73
2023-02-24T22:29:03.611Z,3.91
2023-02-24T22:31:32.033Z,3.60
2023-02-24T22:33:59.051Z,3.69
2023-02-24T22:36:31.578Z,3.52
2023-02-24T22:39:00.352Z,3.61
2023-02-24T22:41:31.305Z,3.66
2023-02-24T22:43:58.782Z,3.65
2023-02-24T22:46:28.802Z,3.51
2023-02-24T22:48:56.822Z,3.42
2023-02-24T22:51:24.425Z,3.38
2023-02-24T22:53:51.974Z,3.37
2023-02-24T22:56:22.244Z,3.50
2023-02-24T22:58:49.001Z,3.51
2023-02-24T23:01:22.279Z,3.61
2023-02-24T23:03:48.897Z,3.50
2023-02-24T23:06:22.216Z,3.49
2023-02-24T23:08:50.701Z,3.48
2023-02-24T23:11:20.841Z,3.53
2023-02-24T23:13:49.708Z,3.52
2023-02-24T23:16:21.898Z,3.56
2023-02-24T23:18:50.765Z,3.63
2023-02-24T23:21:31.017Z,3.61
2023-02-24T23:23:57.499Z,3.60
2023-02-24T23:26:32.502Z,3.58
2023-02-24T23:28:59.547Z,3.56
2023-02-24T23:31:28.808Z,3.41
2023-02-24T23:33:55.500Z,3.61
2023-02-24T23:36:23.934Z,3.62
2023-02-24T23:38:51.818Z,3.67
2023-02-24T23:41:18.503Z,3.54
2023-02-24T23:43:45.123Z,3.46
2023-02-24T23:46:13.966Z,3.66
2023-02-24T23:48:40.808Z,3.25
2023-02-24T23:51:12.605Z,3.38
2023-02-24T23:53:44.860Z,3.33
2023-02-24T23:56:19.463Z,3.54
2023-02-24T23:58:53.157Z,3.47
